createdAt,value
2023-04-25T00:01:48.199Z,99444.52
2023-04-25T00:04:02.540Z,99438.85
2023-04-25T00:06:15.307Z,99436.17
2023-04-25T00:08:27.856Z,99438.48
2023-04-25T00:10:40.464Z,99439.27
2023-04-25T00:12:53.077Z,99437.23
2023-04-25T00:15:06.258Z,99441.26
2023-04-25T00:17:20.179Z,99440.77
2023-04-25T00:19:33.590Z,99444.04
2023-04-25T00:21:47.236Z,99448.05
2023-04-25T00:24:00.783Z,99450.21
2023-04-25T00:26:13.802Z,99447.20
2023-04-25T00:28:26.494Z,99449.70
2023-04-25T00:30:39.956Z,99444.91
2023-04-25T00:32:52.598Z,99450.85
2023-04-25T00:35:05.471Z,99450.23
2023-04-25T00:37:19.258Z,99447.15
2023-04-25T00:39:31.834Z,99450.73
2023-04-25T00:41:45.854Z,99449.67
2023-04-25T00:44:00.325Z,99454.53
2023-04-25T00:46:13.216Z,99459.81
2023-04-25T00:48:25.808Z,99458.31
2023-04-25T00:50:38.844Z,99455.53
2023-04-25T00:52:51.863Z,99461.02
2023-04-25T00:55:04.795Z,99461.98
2023-04-25T00:57:17.401Z,99461.08
2023-04-25T00:59:31.668Z,99461.15
2023-04-25T01:01:45.265Z,99460.95
2023-04-25T01:03:59.880Z,99461.49
2023-04-25T01:06:12.713Z,99464.78
2023-04-25T01:08:28.612Z,99464.58
2023-04-25T01:10:41.334Z,99463.88
2023-04-25T01:12:54.203Z,99468.17
2023-04-25T01:15:07.476Z,99468.21
2023-04-25T01:17:20.720Z,99466.27
2023-04-25T01:19:33.410Z,99464.44
2023-04-25T01:21:46.554Z,99465.95
2023-04-25T01:23:59.408Z,99467.30
2023-04-25T01:26:12.781Z,99467.15
2023-04-25T01:28:25.576Z,99466.66
2023-04-25T01:30:38.327Z,99468.63
2023-04-25T01:32:52.256Z,99465.21
2023-04-25T01:35:10.429Z,99472.42
2023-04-25T01:37:23.282Z,99471.31
2023-04-25T01:39:35.981Z,99475.38
2023-04-25T01:41:48.958Z,99476.41
2023-04-25T01:44:02.381Z,99475.45
2023-04-25T01:46:15.205Z,99474.73
2023-04-25T01:48:27.911Z,99475.20
2023-04-25T01:50:41.609Z,99473.20
2023-04-25T01:52:54.885Z,99471.05
2023-04-25T01:55:07.968Z,99470.23
2023-04-25T01:57:20.881Z,99472.12
2023-04-25T01:59:33.467Z,99473.95
2023-04-25T02:01:46.069Z,99475.55
2023-04-25T02:03:58.937Z,99475.85
2023-04-25T02:06:11.614Z,99475.06
2023-04-25T02:08:24.279Z,99477.25
2023-04-25T02:10:37.376Z,99475.83
2023-04-25T02:12:49.949Z,99475.06
2023-04-25T02:15:02.660Z,99471.92
2023-04-25T02:17:15.283Z,99471.14
2023-04-25T02:19:27.880Z,99474.14
2023-04-25T02:21:40.433Z,99478.40
2023-04-25T02:23:53.558Z,99480.91
2023-04-25T02:26:06.482Z,99478.54
2023-04-25T02:28:19.061Z,99475.99
2023-04-25T02:30:31.573Z,99473.52
2023-04-25T02:32:44.232Z,99471.30
2023-04-25T02:34:59.551Z,99464.52
2023-04-25T02:37:12.142Z,99468.77
2023-04-25T02:39:26.122Z,99468.88
2023-04-25T02:41:38.664Z,99471.30
2023-04-25T02:43:51.553Z,99473.28
2023-04-25T02:46:04.567Z,99476.23
2023-04-25T02:48:17.203Z,99474.90
2023-04-25T02:50:31.967Z,99475.49
2023-04-25T02:52:44.517Z,99475.95
2023-04-25T02:54:57.405Z,99477.09
2023-04-25T02:57:10.032Z,99475.17
2023-04-25T02:59:22.683Z,99474.89
2023-04-25T03:01:35.375Z,99472.89
2023-04-25T03:03:48.017Z,99473.52
2023-04-25T03:06:00.764Z,99470.04
2023-04-25T03:08:13.305Z,99470.41
2023-04-25T03:10:25.952Z,99466.63
2023-04-25T03:12:38.821Z,99467.36
2023-04-25T03:14:51.394Z,99470.67
2023-04-25T03:17:04.032Z,99466.14
2023-04-25T03:19:19.689Z,99465.89
2023-04-25T03:21:34.294Z,99464.98
2023-04-25T03:23:46.954Z,99467.11
2023-04-25T03:25:59.513Z,99463.39
2023-04-25T03:28:12.074Z,99466.02
2023-04-25T03:30:24.694Z,99467.23
2023-04-25T03:32:37.419Z,99466.54
2023-04-25T03:34:50.002Z,99466.30
2023-04-25T03:37:02.649Z,99469.84
2023-04-25T03:39:15.208Z,99473.77
2023-04-25T03:41:28.769Z,99474.48
2023-04-25T03:43:41.374Z,99476.45
2023-04-25T03:45:53.968Z,99480.17
2023-04-25T03:48:06.589Z,99477.70
2023-04-25T03:50:19.172Z,99478.11
2023-04-25T03:52:31.708Z,99479.21
2023-04-25T03:54:44.246Z,99480.54
2023-04-25T03:56:56.770Z,99485.36
2023-04-25T03:59:09.454Z,99488.97
2023-04-25T04:01:22.067Z,99491.91
2023-04-25T04:03:36.992Z,99492.23
2023-04-25T04:05:51.621Z,99491.41
2023-04-25T04:08:04.305Z,99499.10
2023-04-25T04:10:16.825Z,99504.80
2023-04-25T04:12:29.397Z,99502.54
2023-04-25T04:14:41.929Z,99503.01
2023-04-25T04:16:54.513Z,99504.00
2023-04-25T04:19:07.043Z,99502.63
2023-04-25T04:21:19.580Z,99505.98
2023-04-25T04:23:32.239Z,99506.12
2023-04-25T04:25:44.935Z,99505.89
2023-04-25T04:27:58.219Z,99512.42
2023-04-25T04:30:11.018Z,99508.55
2023-04-25T04:32:24.716Z,99510.71
2023-04-25T04:34:37.374Z,99511.87
2023-04-25T04:36:49.902Z,99512.01
2023-04-25T04:39:03.259Z,99511.45
2023-04-25T04:41:15.773Z,99509.20
2023-04-25T04:43:29.522Z,99511.56
2023-04-25T04:45:42.076Z,99511.85
2023-04-25T04:47:56.208Z,99517.31
2023-04-25T04:50:10.341Z,99514.74
2023-04-25T04:52:22.964Z,99516.05
2023-04-25T04:54:36.522Z,99516.41
2023-04-25T04:56:49.182Z,99514.27
2023-04-25T04:59:02.835Z,99517.59
2023-04-25T05:01:16.986Z,99513.52
2023-04-25T05:03:29.860Z,99517.17
2023-04-25T05:05:42.753Z,99515.84
2023-04-25T05:07:55.464Z,99518.42
2023-04-25T05:10:08.782Z,99519.92
2023-04-25T05:12:21.307Z,99517.17
2023-04-25T05:14:34.478Z,99515.87
2023-04-25T05:16:47.190Z,99512.53
2023-04-25T05:18:59.763Z,99514.71
2023-04-25T05:21:12.307Z,99511.53
2023-04-25T05:23:24.867Z,99513.34
2023-04-25T05:25:37.666Z,99510.16
2023-04-25T05:27:52.092Z,99511.59
2023-04-25T05:30:06.333Z,99511.77
2023-04-25T05:32:19.277Z,99514.95
2023-04-25T05:34:32.054Z,99510.70
2023-04-25T05:36:44.610Z,99509.45
2023-04-25T05:38:57.268Z,99509.55
2023-04-25T05:41:09.868Z,99510.26
2023-04-25T05:43:22.404Z,99508.37
2023-04-25T05:45:35.056Z,99507.70
2023-04-25T05:47:47.649Z,99507.05
2023-04-25T05:50:00.336Z,99508.88
2023-04-25T05:52:13.054Z,99509.98
2023-04-25T05:54:25.749Z,99513.58
2023-04-25T05:56:38.307Z,99511.63
2023-04-25T05:58:50.858Z,99511.44
2023-04-25T06:01:04.064Z,99512.63
2023-04-25T06:03:20.229Z,99510.98
2023-04-25T06:05:33.421Z,99505.79
2023-04-25T06:07:46.082Z,99509.74
2023-04-25T06:09:58.742Z,99507.60
2023-04-25T06:12:11.289Z,99509.30
2023-04-25T06:14:28.266Z,99509.89
2023-04-25T06:16:42.075Z,99509.60
2023-04-25T06:18:54.667Z,99511.27
2023-04-25T06:21:07.567Z,99510.11
2023-04-25T06:23:20.091Z,99511.97
2023-04-25T06:25:32.626Z,99512.21
2023-04-25T06:27:45.187Z,99511.05
2023-04-25T06:29:57.816Z,99513.45
2023-04-25T06:32:10.503Z,99515.05
2023-04-25T06:34:23.035Z,99501.40
2023-04-25T06:36:35.559Z,99505.03
2023-04-25T06:38:48.200Z,99505.65
2023-04-25T06:41:00.798Z,99502.52
2023-04-25T06:43:13.378Z,99505.84
2023-04-25T06:45:25.915Z,99503.30
2023-04-25T06:47:38.633Z,99498.80
2023-04-25T06:49:51.233Z,99499.45
2023-04-25T06:52:03.894Z,99500.52
2023-04-25T06:54:16.435Z,99501.81
2023-04-25T06:56:30.599Z,99504.31
2023-04-25T06:58:43.124Z,99500.09
2023-04-25T07:00:55.921Z,99496.38
2023-04-25T07:03:09.119Z,99496.11
2023-04-25T07:05:22.559Z,99491.34
2023-04-25T07:07:35.305Z,99490.14
2023-04-25T07:09:47.813Z,99493.30
2023-04-25T07:12:02.470Z,99494.80
2023-04-25T07:14:15.023Z,99489.95
2023-04-25T07:16:27.602Z,99486.00
2023-04-25T07:18:40.211Z,99483.97
2023-04-25T07:20:52.805Z,99485.30
2023-04-25T07:23:05.520Z,99487.59
2023-04-25T07:25:18.787Z,99485.27
2023-04-25T07:27:32.079Z,99488.80
2023-04-25T07:29:44.579Z,99491.45
2023-04-25T07:31:57.115Z,99492.79
2023-04-25T07:34:09.716Z,99492.11
2023-04-25T07:36:22.532Z,99494.87
2023-04-25T07:38:35.155Z,99493.36
2023-04-25T07:40:49.145Z,99488.95
2023-04-25T07:43:01.696Z,99485.99
2023-04-25T07:45:14.607Z,99488.52
2023-04-25T07:47:27.237Z,99482.48
2023-04-25T07:49:39.928Z,99487.48
2023-04-25T07:51:52.489Z,99489.38
2023-04-25T07:54:06.307Z,99480.86
2023-04-25T07:56:18.974Z,99482.15
2023-04-25T07:58:31.585Z,99479.27
2023-04-25T08:00:44.299Z,99482.83
2023-04-25T08:02:57.197Z,99484.77
2023-04-25T08:05:12.870Z,99484.88
2023-04-25T08:07:26.182Z,99484.33
2023-04-25T08:09:38.799Z,99481.08
2023-04-25T08:11:51.416Z,99485.52
2023-04-25T08:14:03.949Z,99491.17
2023-04-25T08:16:16.821Z,99486.73
2023-04-25T08:18:29.528Z,99487.20
2023-04-25T08:20:42.099Z,99491.25
2023-04-25T08:22:54.702Z,99494.86
2023-04-25T08:25:07.522Z,99493.71
2023-04-25T08:27:20.119Z,99493.67
2023-04-25T08:29:32.638Z,99496.29
2023-04-25T08:31:45.303Z,99497.23
2023-04-25T08:33:57.966Z,99499.23
2023-04-25T08:36:10.547Z,99502.77
2023-04-25T08:38:23.068Z,99501.40
2023-04-25T08:40:38.938Z,99502.77
2023-04-25T08:42:51.665Z,99506.23
2023-04-25T08:45:07.120Z,99508.41
2023-04-25T08:47:23.637Z,99507.08
2023-04-25T08:49:36.989Z,99508.77
2023-04-25T08:51:52.151Z,99506.22
2023-04-25T08:56:29.850Z,99508.99
2023-04-25T08:58:45.438Z,99504.20
2023-04-25T09:00:58.257Z,99496.10
2023-04-25T09:03:11.787Z,99492.49
2023-04-25T09:05:26.241Z,99495.79
2023-04-25T09:07:39.284Z,99493.59
2023-04-25T09:09:52.723Z,99499.98
2023-04-25T09:12:06.494Z,99507.04
2023-04-25T09:14:22.964Z,99507.24
2023-04-25T09:16:38.192Z,99512.85
2023-04-25T09:18:52.091Z,99511.55
2023-04-25T09:21:14.419Z,99517.64
2023-04-25T09:23:27.490Z,99518.04
2023-04-25T09:25:40.279Z,99516.91
2023-04-25T09:27:55.140Z,99519.63
2023-04-25T09:30:08.374Z,99518.33
2023-04-25T09:32:25.569Z,99521.49
2023-04-25T09:34:42.865Z,99523.65
2023-04-25T09:36:56.311Z,99523.36
2023-04-25T09:39:17.315Z,99527.80
2023-04-25T09:41:30.074Z,99525.67
2023-04-25T09:43:46.365Z,99525.13
2023-04-25T09:46:01.431Z,99527.98
2023-04-25T09:48:24.150Z,99530.23
2023-04-25T09:50:36.744Z,99526.70
2023-04-25T09:53:04.225Z,99519.93
2023-04-25T09:55:16.925Z,99517.33
2023-04-25T09:57:29.543Z,99517.41
2023-04-25T09:59:53.340Z,99515.23
2023-04-25T10:02:08.399Z,99519.34
2023-04-25T10:04:27.202Z,99515.66
2023-04-25T10:06:42.322Z,99518.19
2023-04-25T10:08:56.830Z,99516.52
2023-04-25T10:11:09.735Z,99523.60
2023-04-25T10:13:22.926Z,99526.02
2023-04-25T10:15:39.608Z,99525.20
2023-04-25T10:17:52.735Z,99526.20
2023-04-25T10:20:11.721Z,99526.64
2023-04-25T10:22:32.092Z,99522.73
2023-04-25T10:24:45.325Z,99519.34
2023-04-25T10:26:58.548Z,99514.95
2023-04-25T10:29:11.171Z,99517.77
2023-04-25T10:31:23.911Z,99514.59
2023-04-25T10:33:38.682Z,99511.13
2023-04-25T10:35:51.235Z,99513.16
2023-04-25T10:38:10.891Z,99508.98
2023-04-25T10:40:23.950Z,99511.04
2023-04-25T10:42:36.707Z,99508.94
2023-04-25T10:45:05.207Z,99504.14
2023-04-25T10:47:36.285Z,99501.08
2023-04-25T10:49:51.773Z,99488.35
2023-04-25T10:52:27.276Z,99491.86
2023-04-25T10:55:03.769Z,99485.91
2023-04-25T10:57:28.655Z,99487.90
2023-04-25T10:59:41.304Z,99484.92
2023-04-25T11:01:56.174Z,99494.82
2023-04-25T11:04:30.637Z,99493.42
2023-04-25T11:07:07.414Z,99491.13
2023-04-25T11:09:25.455Z,99489.92
2023-04-25T11:11:38.539Z,99489.30
2023-04-25T11:13:51.520Z,99489.20
2023-04-25T11:16:12.539Z,99487.66
2023-04-25T11:18:28.168Z,99493.97
2023-04-25T11:20:44.219Z,99495.10
2023-04-25T11:23:00.742Z,99494.16
2023-04-25T11:25:15.744Z,99495.23
2023-04-25T11:27:28.306Z,99498.52
2023-04-25T11:29:41.769Z,99505.81
2023-04-25T11:31:57.029Z,99502.46
2023-04-25T11:34:09.584Z,99499.01
2023-04-25T11:36:23.812Z,99501.36
2023-04-25T11:38:36.493Z,99499.13
2023-04-25T11:40:55.258Z,99502.52
2023-04-25T11:43:08.111Z,99504.58
2023-04-25T11:45:20.941Z,99507.96
2023-04-25T11:47:34.489Z,99507.45
2023-04-25T11:49:47.079Z,99509.77
2023-04-25T11:51:59.665Z,99505.94
2023-04-25T11:54:13.036Z,99509.97
2023-04-25T11:56:25.662Z,99506.61
2023-04-25T11:58:57.875Z,99502.48
2023-04-25T12:01:10.497Z,99505.34
2023-04-25T12:03:27.227Z,99502.56
2023-04-25T12:05:41.187Z,99506.52
2023-04-25T12:07:54.011Z,99511.07
2023-04-25T12:10:08.932Z,99513.54
2023-04-25T12:12:21.641Z,99511.21
2023-04-25T12:14:35.980Z,99510.06
2023-04-25T12:16:49.605Z,99509.70
2023-04-25T12:19:02.138Z,99508.63
2023-04-25T12:21:14.744Z,99506.05
2023-04-25T12:23:29.115Z,99501.89
2023-04-25T12:25:43.417Z,99497.31
2023-04-25T12:27:56.041Z,99499.49
2023-04-25T12:30:09.636Z,99503.47
2023-04-25T12:32:23.026Z,99503.21
2023-04-25T12:34:37.151Z,99503.30
2023-04-25T12:36:52.268Z,99509.27
2023-04-25T12:39:05.610Z,99516.34
2023-04-25T12:41:18.660Z,99516.39
2023-04-25T12:43:31.556Z,99517.66
2023-04-25T12:45:44.678Z,99521.83
2023-04-25T12:47:57.292Z,99520.52
2023-04-25T12:50:10.498Z,99522.13
2023-04-25T12:52:23.020Z,99520.17
2023-04-25T12:54:36.231Z,99522.10
2023-04-25T12:56:48.885Z,99516.92
2023-04-25T12:59:01.743Z,99517.14
2023-04-25T13:01:14.932Z,99515.52
2023-04-25T13:03:27.606Z,99513.86
2023-04-25T13:05:40.978Z,99508.40
2023-04-25T13:07:53.543Z,99507.48
2023-04-25T13:10:06.892Z,99499.15
2023-04-25T13:12:19.428Z,99496.98
2023-04-25T13:14:34.958Z,99499.56
2023-04-25T13:16:47.596Z,99501.45
2023-04-25T13:19:00.209Z,99500.38
2023-04-25T13:21:12.846Z,99498.90
2023-04-25T13:23:27.528Z,99498.32
2023-04-25T13:25:40.073Z,99501.31
2023-04-25T13:27:53.025Z,99508.71
2023-04-25T13:30:08.600Z,99510.94
2023-04-25T13:32:21.704Z,99515.67
2023-04-25T13:34:34.717Z,99513.52
2023-04-25T13:36:47.636Z,99512.82
2023-04-25T13:39:00.769Z,99514.06
2023-04-25T13:41:18.798Z,99514.31
2023-04-25T13:43:33.214Z,99524.55
2023-04-25T13:45:46.245Z,99519.27
2023-04-25T13:47:59.205Z,99520.55
2023-04-25T13:50:12.329Z,99522.33
2023-04-25T13:52:25.449Z,99524.48
2023-04-25T13:54:38.108Z,99527.51
2023-04-25T13:56:51.404Z,99525.50
2023-04-25T13:59:04.019Z,99527.75
2023-04-25T14:01:16.680Z,99528.57
2023-04-25T14:03:29.359Z,99531.48
2023-04-25T14:05:42.544Z,99529.44
2023-04-25T14:07:55.159Z,99533.34
2023-04-25T14:10:08.243Z,99531.73
2023-04-25T14:12:20.888Z,99533.05
2023-04-25T14:14:33.414Z,99534.07
2023-04-25T14:16:46.652Z,99535.33
2023-04-25T14:18:59.651Z,99537.09
2023-04-25T14:21:12.239Z,99533.70
2023-04-25T14:23:24.750Z,99533.82
2023-04-25T14:25:37.698Z,99533.67
2023-04-25T14:27:53.313Z,99532.77
2023-04-25T14:30:07.378Z,99533.23
2023-04-25T14:32:21.131Z,99533.23
2023-04-25T14:34:33.637Z,99537.83
2023-04-25T14:36:46.289Z,99537.73
2023-04-25T14:38:59.523Z,99545.33
2023-04-25T14:41:12.290Z,99558.23
2023-04-25T14:43:24.790Z,99565.81
2023-04-25T14:45:37.398Z,99569.02
2023-04-25T14:47:50.193Z,99569.66
2023-04-25T14:50:03.370Z,99572.00
2023-04-25T14:52:16.018Z,99573.35
2023-04-25T14:54:28.530Z,99575.84
2023-04-25T14:56:41.083Z,99577.02
2023-04-25T14:58:53.684Z,99582.77
2023-04-25T15:01:07.780Z,99584.77
2023-04-25T15:03:20.686Z,99590.44
2023-04-25T15:05:33.475Z,99593.72
2023-04-25T15:07:46.249Z,99600.36
2023-04-25T15:09:58.815Z,99601.02
2023-04-25T15:12:11.891Z,99600.79
2023-04-25T15:14:24.502Z,99606.41
2023-04-25T15:16:37.182Z,99608.43
2023-04-25T15:18:49.709Z,99610.27
2023-04-25T15:21:02.259Z,99610.02
2023-04-25T15:23:14.902Z,99614.11
2023-04-25T15:25:29.399Z,99613.53
2023-04-25T15:27:44.754Z,99612.31
2023-04-25T15:29:57.410Z,99617.20
2023-04-25T15:32:10.150Z,99617.82
2023-04-25T15:34:22.743Z,99619.11
2023-04-25T15:36:35.314Z,99622.67
2023-04-25T15:38:47.860Z,99632.95
2023-04-25T15:41:00.458Z,99637.98
2023-04-25T15:43:16.396Z,99640.27
2023-04-25T15:45:29.667Z,99641.08
2023-04-25T15:47:42.965Z,99644.82
2023-04-25T15:49:55.633Z,99643.39
2023-04-25T15:52:08.198Z,99644.89
2023-04-25T15:54:20.705Z,99642.70
2023-04-25T15:56:33.390Z,99646.02
2023-04-25T15:58:46.236Z,99645.84
2023-04-25T16:00:59.068Z,99648.06
2023-04-25T16:03:12.059Z,99645.09
2023-04-25T16:05:24.709Z,99647.46
2023-04-25T16:07:37.945Z,99644.70
2023-04-25T16:09:50.658Z,99645.44
2023-04-25T16:12:04.032Z,99644.44
2023-04-25T16:14:16.653Z,99648.64
2023-04-25T16:16:29.233Z,99651.90
2023-04-25T16:18:42.075Z,99653.80
2023-04-25T16:20:54.661Z,99663.07
2023-04-25T16:23:07.175Z,99666.89
2023-04-25T16:25:21.828Z,99669.58
2023-04-25T16:27:34.826Z,99671.02
2023-04-25T16:29:49.405Z,99674.45
2023-04-25T16:32:02.573Z,99676.15
2023-04-25T16:34:15.418Z,99682.20
2023-04-25T16:36:28.111Z,99680.08
2023-04-25T16:38:40.729Z,99684.52
2023-04-25T16:40:54.445Z,99685.93
2023-04-25T16:43:07.014Z,99687.80
2023-04-25T16:45:21.061Z,99689.23
2023-04-25T16:47:33.637Z,99698.98
2023-04-25T16:49:46.274Z,99702.74
2023-04-25T16:51:58.912Z,99711.54
2023-04-25T16:54:11.481Z,99710.55
2023-04-25T16:56:24.655Z,99718.91
2023-04-25T16:58:37.330Z,99726.17
2023-04-25T17:00:50.116Z,99731.84
2023-04-25T17:03:03.243Z,99738.83
2023-04-25T17:05:15.913Z,99741.78
2023-04-25T17:07:28.528Z,99746.83
2023-04-25T17:09:41.293Z,99747.71
2023-04-25T17:11:54.231Z,99752.39
2023-04-25T17:14:06.927Z,99753.40
2023-04-25T17:16:22.959Z,99752.94
2023-04-25T17:18:35.937Z,99751.54
2023-04-25T17:20:48.654Z,99752.40
2023-04-25T17:23:01.318Z,99748.09
2023-04-25T17:25:13.907Z,99750.38
2023-04-25T17:27:26.738Z,99753.22
2023-04-25T17:29:39.312Z,99752.73
2023-04-25T17:31:52.852Z,99750.85
2023-04-25T17:34:05.475Z,99753.86
2023-04-25T17:36:18.400Z,99754.39
2023-04-25T17:38:31.604Z,99759.13
2023-04-25T17:40:44.150Z,99761.63
2023-04-25T17:42:56.728Z,99765.46
2023-04-25T17:45:09.614Z,99770.91
2023-04-25T17:47:23.330Z,99772.67
2023-04-25T17:49:36.025Z,99773.48
2023-04-25T17:51:48.808Z,99778.36
2023-04-25T17:54:01.314Z,99777.31
2023-04-25T17:56:25.925Z,99778.23
2023-04-25T17:58:40.197Z,99783.77
2023-04-25T18:00:52.816Z,99782.48
2023-04-25T18:03:05.845Z,99785.78
2023-04-25T18:05:19.036Z,99790.26
2023-04-25T18:07:31.776Z,99793.33
2023-04-25T18:09:45.062Z,99797.16
2023-04-25T18:12:00.358Z,99795.73
2023-04-25T18:14:14.578Z,99803.99
2023-04-25T18:16:29.300Z,99802.63
2023-04-25T18:18:44.045Z,99808.11
2023-04-25T18:20:56.567Z,99811.77
2023-04-25T18:23:09.140Z,99814.52
2023-04-25T18:25:21.874Z,99817.61
2023-04-25T18:27:34.435Z,99821.40
2023-04-25T18:29:47.287Z,99824.48
2023-04-25T18:32:00.039Z,99830.70
2023-04-25T18:34:13.174Z,99833.43
2023-04-25T18:36:26.667Z,99839.23
2023-04-25T18:38:39.154Z,99840.02
2023-04-25T18:41:00.066Z,99845.15
2023-04-25T18:43:18.646Z,99847.55
2023-04-25T18:45:32.025Z,99851.14
2023-04-25T18:47:46.588Z,99848.60
2023-04-25T18:49:59.191Z,99852.23
2023-04-25T18:52:14.959Z,99855.98
2023-04-25T18:54:27.583Z,99860.28
2023-04-25T18:56:40.138Z,99867.45
2023-04-25T18:58:54.200Z,99868.55
2023-04-25T19:01:07.530Z,99872.76
2023-04-25T19:03:21.826Z,99874.10
2023-04-25T19:05:34.507Z,99874.40
2023-04-25T19:07:47.142Z,99879.01
2023-04-25T19:09:59.920Z,99882.85
2023-04-25T19:12:12.580Z,99885.35
2023-04-25T19:14:26.127Z,99884.79
2023-04-25T19:16:41.742Z,99889.55
2023-04-25T19:18:56.582Z,99892.64
2023-04-25T19:21:09.583Z,99895.17
2023-04-25T19:23:25.345Z,99894.16
2023-04-25T19:25:38.098Z,99894.30
2023-04-25T19:27:50.883Z,99897.77
2023-04-25T19:30:08.039Z,99899.54
2023-04-25T19:32:20.684Z,99897.27
2023-04-25T19:34:33.263Z,99900.04
2023-04-25T19:36:45.834Z,99896.52
2023-04-25T19:39:02.362Z,99895.90
2023-04-25T19:41:14.935Z,99899.30
2023-04-25T19:43:27.597Z,99899.35
2023-04-25T19:45:40.294Z,99898.55
2023-04-25T19:47:53.419Z,99901.11
2023-04-25T19:50:08.446Z,99902.42
2023-04-25T19:52:21.161Z,99907.98
2023-04-25T19:54:34.378Z,99911.08
2023-04-25T19:56:46.911Z,99909.48
2023-04-25T19:58:59.571Z,99913.48
2023-04-25T20:01:12.160Z,99916.92
2023-04-25T20:03:24.814Z,99920.67
2023-04-25T20:05:37.696Z,99920.15
2023-04-25T20:07:50.482Z,99920.98
2023-04-25T20:10:07.036Z,99923.71
2023-04-25T20:12:20.076Z,99924.66
2023-04-25T20:14:33.263Z,99926.83
2023-04-25T20:16:46.732Z,99929.73
2023-04-25T20:18:59.371Z,99925.27
2023-04-25T20:21:11.907Z,99925.87
2023-04-25T20:23:24.423Z,99926.88
2023-04-25T20:25:37.753Z,99921.50
2023-04-25T20:27:50.287Z,99926.10
2023-04-25T20:30:04.974Z,99926.73
2023-04-25T20:32:17.654Z,99934.43
2023-04-25T20:34:31.597Z,99939.70
2023-04-25T20:36:44.180Z,99935.45
2023-04-25T20:38:57.116Z,99933.27
2023-04-25T20:41:09.609Z,99935.11
2023-04-25T20:43:23.475Z,99935.21
2023-04-25T20:45:37.490Z,99937.21
2023-04-25T20:47:50.152Z,99934.09
2023-04-25T20:50:05.933Z,99933.71
2023-04-25T20:52:18.763Z,99935.80
2023-04-25T20:54:32.092Z,99937.52
2023-04-25T20:56:45.302Z,99940.35
2023-04-25T20:58:58.314Z,99940.61
2023-04-25T21:01:11.452Z,99943.30
2023-04-25T21:03:25.985Z,99943.86
2023-04-25T21:05:38.736Z,99948.27
2023-04-25T21:07:54.690Z,99952.23
2023-04-25T21:10:07.633Z,99952.63
2023-04-25T21:12:20.555Z,99953.05
2023-04-25T21:14:34.516Z,99956.77
2023-04-25T21:16:47.428Z,99957.00
2023-04-25T21:19:02.003Z,99959.53
2023-04-25T21:21:14.825Z,99959.20
2023-04-25T21:23:27.661Z,99961.30
2023-04-25T21:25:41.301Z,99962.35
2023-04-25T21:27:54.147Z,99969.91
2023-04-25T21:30:08.374Z,99970.80
2023-04-25T21:32:21.833Z,99965.34
2023-04-25T21:34:34.459Z,99967.98
2023-04-25T21:36:47.281Z,99968.17
2023-04-25T21:39:00.039Z,99970.12
2023-04-25T21:41:12.590Z,99975.02
2023-04-25T21:43:25.164Z,99979.04
2023-04-25T21:45:47.213Z,99982.39
2023-04-25T21:48:10.637Z,99983.84
2023-04-25T21:50:23.283Z,99987.46
2023-04-25T21:52:36.166Z,99989.41
2023-04-25T21:54:48.922Z,99986.94
2023-04-25T21:57:01.444Z,99990.94
2023-04-25T21:59:14.042Z,99990.31
2023-04-25T22:01:27.674Z,99989.71
2023-04-25T22:03:40.513Z,99992.30
2023-04-25T22:05:53.142Z,99990.05
2023-04-25T22:08:05.729Z,99992.52
2023-04-25T22:10:19.584Z,99992.27
2023-04-25T22:12:32.194Z,99994.02
2023-04-25T22:14:44.866Z,99994.91
2023-04-25T22:16:58.430Z,100001.39
2023-04-25T22:19:11.484Z,100002.70
2023-04-25T22:21:24.453Z,100009.46
2023-04-25T22:23:37.320Z,100010.59
2023-04-25T22:25:49.995Z,100015.80
2023-04-25T22:28:02.571Z,100017.88
2023-04-25T22:30:15.646Z,100019.07
2023-04-25T22:32:28.212Z,100020.31
2023-04-25T22:34:42.107Z,100018.29
2023-04-25T22:36:55.137Z,100019.72
2023-04-25T22:39:08.590Z,100020.61
2023-04-25T22:41:21.564Z,100019.58
2023-04-25T22:43:34.262Z,100022.48
2023-04-25T22:45:47.395Z,100022.59
2023-04-25T22:48:00.360Z,100022.43
2023-04-25T22:50:13.878Z,100023.80
2023-04-25T22:52:27.138Z,100027.18
2023-04-25T22:54:39.692Z,100027.05
2023-04-25T22:56:52.311Z,100030.66
2023-04-25T22:59:04.827Z,100030.95
2023-04-25T23:01:19.059Z,100030.73
2023-04-25T23:03:32.655Z,100028.07
2023-04-25T23:05:46.298Z,100027.27
2023-04-25T23:07:59.207Z,100032.84
2023-04-25T23:10:13.002Z,100036.70
2023-04-25T23:12:25.565Z,100037.41
2023-04-25T23:14:38.490Z,100039.40
2023-04-25T23:16:51.167Z,100040.89
2023-04-25T23:19:03.772Z,100043.67
2023-04-25T23:21:16.280Z,100039.91
2023-04-25T23:23:29.008Z,100039.56
2023-04-25T23:25:41.566Z,100040.58
2023-04-25T23:27:54.255Z,100042.98
2023-04-25T23:30:08.606Z,100037.98
2023-04-25T23:32:22.177Z,100039.38
2023-04-25T23:34:35.733Z,100044.20
2023-04-25T23:36:48.313Z,100042.80
2023-04-25T23:39:02.059Z,100041.80
2023-04-25T23:41:14.707Z,100040.81
2023-04-25T23:43:27.295Z,100041.91
2023-04-25T23:45:40.206Z,100042.10
2023-04-25T23:47:52.790Z,100041.10
2023-04-25T23:50:06.072Z,100039.61
2023-04-25T23:52:18.686Z,100040.33
2023-04-25T23:54:31.261Z,100043.61
2023-04-25T23:56:44.450Z,100042.60
2023-04-25T23:58:56.956Z,100047.13
